sensor_id;sensor_type;location;lat;lon;timestamp;P1;durP1;ratioP1;P2;durP2;ratioP2
11620;SDS011;5866;49.094;11.900;2024-03-02T00:00:40;83.83;;;47.50;;
11620;SDS011;5866;49.094;11.900;2024-03-02T00:03:09;89.00;;;45.43;;
11620;SDS011;5866;49.094;11.900;2024-03-02T00:05:40;87.77;;;48.20;;
11620;SDS011;5866;49.094;11.900;2024-03-02T00:08:08;85.77;;;44.87;;
11620;SDS011;5866;49.094;11.900;2024-03-02T00:10:37;87.50;;;46.20;;
11620;SDS011;5866;49.094;11.900;2024-03-02T00:13:07;86.60;;;48.13;;
11620;SDS011;5866;49.094;11.900;2024-03-02T00:15:41;90.20;;;47.10;;
11620;SDS011;5866;49.094;11.900;2024-03-02T00:18:16;90.77;;;46.47;;
11620;SDS011;5866;49.094;11.900;2024-03-02T00:20:46;91.47;;;47.23;;
11620;SDS011;5866;49.094;11.900;2024-03-02T00:23:14;88.57;;;47.53;;
11620;SDS011;5866;49.094;11.900;2024-03-02T00:25:44;99.00;;;48.00;;
11620;SDS011;5866;49.094;11.900;2024-03-02T00:28:16;97.03;;;50.83;;
11620;SDS011;5866;49.094;11.900;2024-03-02T00:30:50;92.10;;;49.10;;
11620;SDS011;5866;49.094;11.900;2024-03-02T00:33:22;99.30;;;55.37;;
11620;SDS011;5866;49.094;11.900;2024-03-02T00:35:51;99.50;;;64.63;;
11620;SDS011;5866;49.094;11.900;2024-03-02T00:38:19;104.67;;;67.47;;
11620;SDS011;5866;49.094;11.900;2024-03-02T00:40:47;112.97;;;70.20;;
11620;SDS011;5866;49.094;11.900;2024-03-02T00:46:18;101.47;;;69.53;;
11620;SDS011;5866;49.094;11.900;2024-03-02T00:48:54;106.73;;;72.90;;
11620;SDS011;5866;49.094;11.900;2024-03-02T00:51:24;96.03;;;60.50;;
11620;SDS011;5866;49.094;11.900;2024-03-02T00:53:53;101.37;;;58.83;;
11620;SDS011;5866;49.094;11.900;2024-03-02T00:56:23;103.80;;;52.03;;
11620;SDS011;5866;49.094;11.900;2024-03-02T00:58:51;102.93;;;50.20;;
11620;SDS011;5866;49.094;11.900;2024-03-02T01:01:19;103.97;;;49.67;;
11620;SDS011;5866;49.094;11.900;2024-03-02T01:03:47;97.33;;;51.27;;
11620;SDS011;5866;49.094;11.900;2024-03-02T01:06:17;95.70;;;49.80;;
11620;SDS011;5866;49.094;11.900;2024-03-02T01:08:45;102.23;;;57.70;;
11620;SDS011;5866;49.094;11.900;2024-03-02T01:11:16;107.53;;;52.20;;
11620;SDS011;5866;49.094;11.900;2024-03-02T01:13:45;99.03;;;50.87;;
11620;SDS011;5866;49.094;11.900;2024-03-02T01:16:13;101.13;;;48.97;;
11620;SDS011;5866;49.094;11.900;2024-03-02T01:18:41;102.63;;;51.07;;
11620;SDS011;5866;49.094;11.900;2024-03-02T01:21:09;97.03;;;51.33;;
11620;SDS011;5866;49.094;11.900;2024-03-02T01:23:38;96.27;;;47.50;;
11620;SDS011;5866;49.094;11.900;2024-03-02T01:26:06;99.90;;;45.50;;
11620;SDS011;5866;49.094;11.900;2024-03-02T01:28:33;118.57;;;46.53;;
11620;SDS011;5866;49.094;11.900;2024-03-02T01:31:01;107.70;;;47.57;;
11620;SDS011;5866;49.094;11.900;2024-03-02T01:33:29;173.00;;;53.63;;
11620;SDS011;5866;49.094;11.900;2024-03-02T01:35:57;140.67;;;47.23;;
11620;SDS011;5866;49.094;11.900;2024-03-02T01:38:24;100.43;;;46.37;;
11620;SDS011;5866;49.094;11.900;2024-03-02T01:40:53;137.50;;;45.97;;
11620;SDS011;5866;49.094;11.900;2024-03-02T01:43:23;105.93;;;50.23;;
11620;SDS011;5866;49.094;11.900;2024-03-02T01:45:50;114.37;;;52.60;;
11620;SDS011;5866;49.094;11.900;2024-03-02T01:48:18;115.07;;;51.87;;
11620;SDS011;5866;49.094;11.900;2024-03-02T01:50:46;132.43;;;66.53;;
11620;SDS011;5866;49.094;11.900;2024-03-02T01:53:14;127.30;;;66.17;;
11620;SDS011;5866;49.094;11.900;2024-03-02T01:55:41;122.97;;;69.43;;
11620;SDS011;5866;49.094;11.900;2024-03-02T01:58:10;128.50;;;56.57;;
11620;SDS011;5866;49.094;11.900;2024-03-02T02:00:38;111.83;;;53.70;;
11620;SDS011;5866;49.094;11.900;2024-03-02T02:03:06;114.73;;;56.90;;
11620;SDS011;5866;49.094;11.900;2024-03-02T02:05:34;133.77;;;56.47;;
11620;SDS011;5866;49.094;11.900;2024-03-02T02:08:02;107.00;;;57.83;;
11620;SDS011;5866;49.094;11.900;2024-03-02T02:10:30;117.40;;;52.27;;
11620;SDS011;5866;49.094;11.900;2024-03-02T02:12:57;107.37;;;48.83;;
11620;SDS011;5866;49.094;11.900;2024-03-02T02:15:27;136.10;;;51.67;;
11620;SDS011;5866;49.094;11.900;2024-03-02T02:17:57;146.73;;;49.20;;
11620;SDS011;5866;49.094;11.900;2024-03-02T02:20:26;227.00;;;54.77;;
11620;SDS011;5866;49.094;11.900;2024-03-02T02:22:59;164.53;;;49.10;;
11620;SDS011;5866;49.094;11.900;2024-03-02T02:25:27;135.13;;;46.60;;
11620;SDS011;5866;49.094;11.900;2024-03-02T02:27:56;160.50;;;50.33;;
11620;SDS011;5866;49.094;11.900;2024-03-02T02:30:26;215.43;;;52.33;;
11620;SDS011;5866;49.094;11.900;2024-03-02T02:32:55;235.83;;;56.40;;
11620;SDS011;5866;49.094;11.900;2024-03-02T02:35:23;181.73;;;48.83;;
11620;SDS011;5866;49.094;11.900;2024-03-02T02:37:51;119.70;;;44.90;;
11620;SDS011;5866;49.094;11.900;2024-03-02T02:40:22;145.23;;;43.90;;
11620;SDS011;5866;49.094;11.900;2024-03-02T02:42:50;162.50;;;44.90;;
11620;SDS011;5866;49.094;11.900;2024-03-02T02:45:19;227.17;;;47.73;;
11620;SDS011;5866;49.094;11.900;2024-03-02T02:47:46;127.57;;;41.93;;
11620;SDS011;5866;49.094;11.900;2024-03-02T02:50:14;74.60;;;40.73;;
11620;SDS011;5866;49.094;11.900;2024-03-02T02:52:42;106.53;;;40.77;;
11620;SDS011;5866;49.094;11.900;2024-03-02T02:55:10;98.00;;;43.63;;
11620;SDS011;5866;49.094;11.900;2024-03-02T02:57:40;94.97;;;39.97;;
11620;SDS011;5866;49.094;11.900;2024-03-02T03:00:11;64.70;;;36.83;;
11620;SDS011;5866;49.094;11.900;2024-03-02T03:02:43;71.60;;;37.63;;
11620;SDS011;5866;49.094;11.900;2024-03-02T03:05:14;62.60;;;36.03;;
11620;SDS011;5866;49.094;11.900;2024-03-02T03:07:41;74.00;;;35.67;;
11620;SDS011;5866;49.094;11.900;2024-03-02T03:10:10;69.90;;;33.87;;
11620;SDS011;5866;49.094;11.900;2024-03-02T03:12:40;83.93;;;36.10;;
11620;SDS011;5866;49.094;11.900;2024-03-02T03:15:10;82.67;;;36.63;;
11620;SDS011;5866;49.094;11.900;2024-03-02T03:17:39;85.17;;;37.23;;
11620;SDS011;5866;49.094;11.900;2024-03-02T03:20:07;115.77;;;39.67;;
11620;SDS011;5866;49.094;11.900;2024-03-02T03:22:36;127.00;;;38.93;;
11620;SDS011;5866;49.094;11.900;2024-03-02T03:25:04;139.63;;;39.67;;
11620;SDS011;5866;49.094;11.900;2024-03-02T03:27:34;143.80;;;38.17;;
11620;SDS011;5866;49.094;11.900;2024-03-02T03:30:04;195.63;;;42.07;;
11620;SDS011;5866;49.094;11.900;2024-03-02T03:32:33;250.67;;;55.00;;
11620;SDS011;5866;49.094;11.900;2024-03-02T03:35:01;141.93;;;41.30;;
11620;SDS011;5866;49.094;11.900;2024-03-02T03:37:29;141.40;;;41.90;;
11620;SDS011;5866;49.094;11.900;2024-03-02T03:40:00;261.70;;;49.83;;
11620;SDS011;5866;49.094;11.900;2024-03-02T03:42:29;124.97;;;39.00;;
11620;SDS011;5866;49.094;11.900;2024-03-02T03:44:56;262.20;;;60.63;;
11620;SDS011;5866;49.094;11.900;2024-03-02T03:47:25;229.37;;;46.73;;
11620;SDS011;5866;49.094;11.900;2024-03-02T03:49:53;160.03;;;41.67;;
11620;SDS011;5866;49.094;11.900;2024-03-02T03:52:20;219.87;;;39.60;;
11620;SDS011;5866;49.094;11.900;2024-03-02T03:54:48;208.20;;;43.70;;
11620;SDS011;5866;49.094;11.900;2024-03-02T03:57:15;246.80;;;45.30;;
11620;SDS011;5866;49.094;11.900;2024-03-02T03:59:43;279.13;;;44.80;;
11620;SDS011;5866;49.094;11.900;2024-03-02T04:02:12;212.47;;;39.63;;
11620;SDS011;5866;49.094;11.900;2024-03-02T04:04:41;239.80;;;39.37;;
11620;SDS011;5866;49.094;11.900;2024-03-02T04:07:10;208.50;;;38.07;;
11620;SDS011;5866;49.094;11.900;2024-03-02T04:09:37;210.30;;;39.33;;
11620;SDS011;5866;49.094;11.900;2024-03-02T04:12:05;189.80;;;37.97;;
11620;SDS011;5866;49.094;11.900;2024-03-02T04:14:33;166.83;;;37.43;;
11620;SDS011;5866;49.094;11.900;2024-03-02T04:17:00;194.13;;;39.77;;
11620;SDS011;5866;49.094;11.900;2024-03-02T04:19:28;190.13;;;40.57;;
11620;SDS011;5866;49.094;11.900;2024-03-02T04:21:57;215.50;;;42.60;;
11620;SDS011;5866;49.094;11.900;2024-03-02T04:24:30;228.87;;;40.83;;
11620;SDS011;5866;49.094;11.900;2024-03-02T04:26:58;250.63;;;42.87;;
11620;SDS011;5866;49.094;11.900;2024-03-02T04:29:26;304.67;;;48.07;;
11620;SDS011;5866;49.094;11.900;2024-03-02T04:31:53;527.33;;;57.00;;
11620;SDS011;5866;49.094;11.900;2024-03-02T04:34:21;440.40;;;49.67;;
11620;SDS011;5866;49.094;11.900;2024-03-02T04:36:49;299.10;;;41.40;;
11620;SDS011;5866;49.094;11.900;2024-03-02T04:39:18;345.10;;;46.87;;
11620;SDS011;5866;49.094;11.900;2024-03-02T04:41:45;471.30;;;55.77;;
11620;SDS011;5866;49.094;11.900;2024-03-02T04:44:14;351.63;;;48.73;;
11620;SDS011;5866;49.094;11.900;2024-03-02T04:46:42;307.90;;;46.77;;
11620;SDS011;5866;49.094;11.900;2024-03-02T04:49:09;351.87;;;47.57;;
11620;SDS011;5866;49.094;11.900;2024-03-02T04:51:37;404.93;;;54.13;;
11620;SDS011;5866;49.094;11.900;2024-03-02T04:54:04;399.83;;;50.53;;
11620;SDS011;5866;49.094;11.900;2024-03-02T04:56:33;464.13;;;55.17;;
11620;SDS011;5866;49.094;11.900;2024-03-02T04:59:11;409.63;;;50.70;;
11620;SDS011;5866;49.094;11.900;2024-03-02T05:01:38;476.03;;;55.30;;
11620;SDS011;5866;49.094;11.900;2024-03-02T05:04:06;459.00;;;56.13;;
11620;SDS011;5866;49.094;11.900;2024-03-02T05:06:34;494.70;;;56.63;;
11620;SDS011;5866;49.094;11.900;2024-03-02T05:09:01;525.63;;;61.40;;
11620;SDS011;5866;49.094;11.900;2024-03-02T05:11:29;401.10;;;61.00;;
11620;SDS011;5866;49.094;11.900;2024-03-02T05:14:16;506.73;;;62.67;;
11620;SDS011;5866;49.094;11.900;2024-03-02T05:16:43;487.03;;;63.50;;
11620;SDS011;5866;49.094;11.900;2024-03-02T05:19:11;488.43;;;62.13;;
11620;SDS011;5866;49.094;11.900;2024-03-02T05:21:38;386.23;;;60.83;;
11620;SDS011;5866;49.094;11.900;2024-03-02T05:24:06;390.70;;;57.50;;
11620;SDS011;5866;49.094;11.900;2024-03-02T05:26:34;493.33;;;67.63;;
11620;SDS011;5866;49.094;11.900;2024-03-02T05:29:02;331.17;;;49.73;;
11620;SDS011;5866;49.094;11.900;2024-03-02T05:31:31;384.07;;;53.33;;
11620;SDS011;5866;49.094;11.900;2024-03-02T05:33:58;337.50;;;55.03;;
11620;SDS011;5866;49.094;11.900;2024-03-02T05:36:26;365.03;;;54.87;;
11620;SDS011;5866;49.094;11.900;2024-03-02T05:38:54;305.13;;;53.27;;
11620;SDS011;5866;49.094;11.900;2024-03-02T05:41:21;293.23;;;50.40;;
11620;SDS011;5866;49.094;11.900;2024-03-02T05:43:49;504.23;;;64.13;;
11620;SDS011;5866;49.094;11.900;2024-03-02T05:46:16;448.90;;;61.53;;
11620;SDS011;5866;49.094;11.900;2024-03-02T05:48:45;255.20;;;53.70;;
11620;SDS011;5866;49.094;11.900;2024-03-02T05:51:13;203.13;;;45.67;;
11620;SDS011;5866;49.094;11.900;2024-03-02T05:53:40;338.97;;;56.40;;
11620;SDS011;5866;49.094;11.900;2024-03-02T05:56:08;362.50;;;68.13;;
11620;SDS011;5866;49.094;11.900;2024-03-02T05:58:35;363.47;;;61.97;;
11620;SDS011;5866;49.094;11.900;2024-03-02T06:01:19;336.63;;;67.07;;
11620;SDS011;5866;49.094;11.900;2024-03-02T06:03:50;294.03;;;112.43;;
11620;SDS011;5866;49.094;11.900;2024-03-02T06:06:18;453.30;;;130.83;;
11620;SDS011;5866;49.094;11.900;2024-03-02T06:08:45;453.90;;;141.50;;
11620;SDS011;5866;49.094;11.900;2024-03-02T06:11:13;405.70;;;126.30;;
11620;SDS011;5866;49.094;11.900;2024-03-02T06:13:40;291.90;;;74.33;;
11620;SDS011;5866;49.094;11.900;2024-03-02T06:16:08;354.27;;;80.03;;
11620;SDS011;5866;49.094;11.900;2024-03-02T06:18:35;365.43;;;92.53;;
11620;SDS011;5866;49.094;11.900;2024-03-02T06:21:05;332.30;;;97.37;;
11620;SDS011;5866;49.094;11.900;2024-03-02T06:23:32;380.80;;;102.37;;
11620;SDS011;5866;49.094;11.900;2024-03-02T06:26:01;223.07;;;74.53;;
11620;SDS011;5866;49.094;11.900;2024-03-02T06:28:29;380.83;;;97.77;;
11620;SDS011;5866;49.094;11.900;2024-03-02T06:30:56;263.93;;;81.77;;
11620;SDS011;5866;49.094;11.900;2024-03-02T06:33:24;288.50;;;79.33;;
11620;SDS011;5866;49.094;11.900;2024-03-02T06:35:52;215.73;;;57.07;;
11620;SDS011;5866;49.094;11.900;2024-03-02T06:38:21;210.20;;;99.63;;
11620;SDS011;5866;49.094;11.900;2024-03-02T06:40:49;239.23;;;64.33;;
11620;SDS011;5866;49.094;11.900;2024-03-02T06:43:16;320.67;;;93.00;;
11620;SDS011;5866;49.094;11.900;2024-03-02T06:45:44;262.50;;;95.70;;
11620;SDS011;5866;49.094;11.900;2024-03-02T06:48:11;198.73;;;75.57;;
11620;SDS011;5866;49.094;11.900;2024-03-02T06:50:41;266.40;;;77.53;;
11620;SDS011;5866;49.094;11.900;2024-03-02T06:53:09;149.67;;;72.67;;
11620;SDS011;5866;49.094;11.900;2024-03-02T06:55:38;340.73;;;121.00;;
11620;SDS011;5866;49.094;11.900;2024-03-02T06:58:05;253.33;;;110.90;;
11620;SDS011;5866;49.094;11.900;2024-03-02T07:00:33;310.30;;;87.00;;
11620;SDS011;5866;49.094;11.900;2024-03-02T07:03:00;351.63;;;124.00;;
11620;SDS011;5866;49.094;11.900;2024-03-02T07:05:28;225.20;;;80.50;;
11620;SDS011;5866;49.094;11.900;2024-03-02T07:07:56;256.27;;;58.35;;
11620;SDS011;5866;49.094;11.900;2024-03-02T07:10:23;207.07;;;80.22;;
11620;SDS011;5866;49.094;11.900;2024-03-02T07:12:52;230.68;;;88.10;;
11620;SDS011;5866;49.094;11.900;2024-03-02T07:15:20;326.60;;;84.30;;
11620;SDS011;5866;49.094;11.900;2024-03-02T07:18:11;413.93;;;123.30;;
11620;SDS011;5866;49.094;11.900;2024-03-02T07:20:38;206.30;;;100.33;;
11620;SDS011;5866;49.094;11.900;2024-03-02T07:23:06;257.75;;;61.85;;
11620;SDS011;5866;49.094;11.900;2024-03-02T07:25:34;277.43;;;88.17;;
11620;SDS011;5866;49.094;11.900;2024-03-02T07:28:06;241.63;;;59.95;;
11620;SDS011;5866;49.094;11.900;2024-03-02T07:30:34;230.17;;;62.80;;
11620;SDS011;5866;49.094;11.900;2024-03-02T07:33:04;203.53;;;69.50;;
11620;SDS011;5866;49.094;11.900;2024-03-02T07:35:32;235.33;;;72.07;;
11620;SDS011;5866;49.094;11.900;2024-03-02T07:38:00;244.70;;;80.87;;
11620;SDS011;5866;49.094;11.900;2024-03-02T07:40:27;195.55;;;74.00;;
11620;SDS011;5866;49.094;11.900;2024-03-02T07:42:55;329.10;;;74.93;;
11620;SDS011;5866;49.094;11.900;2024-03-02T07:45:24;250.93;;;67.83;;
11620;SDS011;5866;49.094;11.900;2024-03-02T07:47:52;175.40;;;118.55;;
11620;SDS011;5866;49.094;11.900;2024-03-02T07:50:20;174.73;;;84.40;;
11620;SDS011;5866;49.094;11.900;2024-03-02T07:52:47;286.60;;;118.47;;
11620;SDS011;5866;49.094;11.900;2024-03-02T07:55:15;197.07;;;107.57;;
11620;SDS011;5866;49.094;11.900;2024-03-02T07:57:43;275.40;;;112.05;;
11620;SDS011;5866;49.094;11.900;2024-03-02T08:00:11;319.25;;;89.28;;
11620;SDS011;5866;49.094;11.900;2024-03-02T08:02:42;332.37;;;102.67;;
11620;SDS011;5866;49.094;11.900;2024-03-02T08:05:09;230.60;;;68.90;;
11620;SDS011;5866;49.094;11.900;2024-03-02T08:07:37;329.33;;;90.37;;
11620;SDS011;5866;49.094;11.900;2024-03-02T08:10:05;227.10;;;72.28;;
11620;SDS011;5866;49.094;11.900;2024-03-02T08:12:33;324.10;;;95.80;;
11620;SDS011;5866;49.094;11.900;2024-03-02T08:15:01;173.88;;;67.07;;
11620;SDS011;5866;49.094;11.900;2024-03-02T08:17:29;172.18;;;71.25;;
11620;SDS011;5866;49.094;11.900;2024-03-02T08:20:00;189.77;;;60.08;;
11620;SDS011;5866;49.094;11.900;2024-03-02T08:22:29;315.77;;;58.85;;
11620;SDS011;5866;49.094;11.900;2024-03-02T08:24:56;228.10;;;58.70;;
11620;SDS011;5866;49.094;11.900;2024-03-02T08:27:25;276.52;;;64.07;;
11620;SDS011;5866;49.094;11.900;2024-03-02T08:29:52;234.80;;;69.53;;
11620;SDS011;5866;49.094;11.900;2024-03-02T08:32:20;184.13;;;57.20;;
11620;SDS011;5866;49.094;11.900;2024-03-02T08:34:48;162.95;;;66.40;;
11620;SDS011;5866;49.094;11.900;2024-03-02T08:37:17;122.70;;;55.22;;
11620;SDS011;5866;49.094;11.900;2024-03-02T08:39:45;153.20;;;91.30;;
11620;SDS011;5866;49.094;11.900;2024-03-02T08:42:12;111.80;;;55.63;;
11620;SDS011;5866;49.094;11.900;2024-03-02T08:44:40;116.95;;;57.45;;
11620;SDS011;5866;49.094;11.900;2024-03-02T08:47:08;256.17;;;62.33;;
11620;SDS011;5866;49.094;11.900;2024-03-02T08:49:35;152.43;;;90.93;;
11620;SDS011;5866;49.094;11.900;2024-03-02T08:52:03;251.40;;;68.65;;
11620;SDS011;5866;49.094;11.900;2024-03-02T08:54:32;253.45;;;71.55;;
11620;SDS011;5866;49.094;11.900;2024-03-02T08:57:02;153.38;;;56.13;;
11620;SDS011;5866;49.094;11.900;2024-03-02T08:59:29;95.45;;;57.35;;
11620;SDS011;5866;49.094;11.900;2024-03-02T09:01:58;90.57;;;59.72;;
11620;SDS011;5866;49.094;11.900;2024-03-02T09:04:26;110.00;;;58.20;;
11620;SDS011;5866;49.094;11.900;2024-03-02T09:06:59;108.22;;;77.25;;
11620;SDS011;5866;49.094;11.900;2024-03-02T09:09:27;115.10;;;70.60;;
11620;SDS011;5866;49.094;11.900;2024-03-02T09:11:56;118.05;;;89.55;;
11620;SDS011;5866;49.094;11.900;2024-03-02T09:14:24;93.50;;;57.45;;
11620;SDS011;5866;49.094;11.900;2024-03-02T09:16:52;96.72;;;57.08;;
11620;SDS011;5866;49.094;11.900;2024-03-02T09:19:19;94.00;;;62.95;;
11620;SDS011;5866;49.094;11.900;2024-03-02T09:21:47;101.07;;;67.13;;
11620;SDS011;5866;49.094;11.900;2024-03-02T09:24:16;99.60;;;61.58;;
11620;SDS011;5866;49.094;11.900;2024-03-02T09:26:44;99.60;;;67.57;;
11620;SDS011;5866;49.094;11.900;2024-03-02T09:29:13;93.07;;;60.95;;
11620;SDS011;5866;49.094;11.900;2024-03-02T09:31:40;83.43;;;56.03;;
11620;SDS011;5866;49.094;11.900;2024-03-02T09:34:08;90.18;;;60.75;;
11620;SDS011;5866;49.094;11.900;2024-03-02T09:36:36;80.88;;;55.08;;
11620;SDS011;5866;49.094;11.900;2024-03-02T09:39:04;82.70;;;63.08;;
11620;SDS011;5866;49.094;11.900;2024-03-02T09:41:32;89.13;;;63.50;;
11620;SDS011;5866;49.094;11.900;2024-03-02T09:44:00;83.32;;;61.03;;
11620;SDS011;5866;49.094;11.900;2024-03-02T09:46:29;73.88;;;48.97;;
11620;SDS011;5866;49.094;11.900;2024-03-02T09:48:57;77.57;;;50.35;;
11620;SDS011;5866;49.094;11.900;2024-03-02T09:51:25;76.55;;;51.08;;
11620;SDS011;5866;49.094;11.900;2024-03-02T09:53:53;74.03;;;50.92;;
11620;SDS011;5866;49.094;11.900;2024-03-02T09:56:38;72.05;;;55.00;;
11620;SDS011;5866;49.094;11.900;2024-03-02T09:59:06;69.45;;;50.85;;
11620;SDS011;5866;49.094;11.900;2024-03-02T10:01:35;70.65;;;50.67;;
11620;SDS011;5866;49.094;11.900;2024-03-02T10:04:02;67.75;;;46.28;;
11620;SDS011;5866;49.094;11.900;2024-03-02T10:06:32;69.38;;;58.70;;
11620;SDS011;5866;49.094;11.900;2024-03-02T10:09:00;58.80;;;45.75;;
11620;SDS011;5866;49.094;11.900;2024-03-02T10:11:28;61.15;;;54.42;;
11620;SDS011;5866;49.094;11.900;2024-03-02T10:14:07;66.13;;;58.65;;
11620;SDS011;5866;49.094;11.900;2024-03-02T10:16:37;113.43;;;103.95;;
11620;SDS011;5866;49.094;11.900;2024-03-02T10:19:17;80.40;;;72.45;;
11620;SDS011;5866;49.094;11.900;2024-03-02T10:21:46;58.10;;;51.80;;
11620;SDS011;5866;49.094;11.900;2024-03-02T10:24:14;48.65;;;36.28;;
11620;SDS011;5866;49.094;11.900;2024-03-02T10:26:42;48.85;;;33.90;;
11620;SDS011;5866;49.094;11.900;2024-03-02T10:29:10;49.90;;;34.80;;
11620;SDS011;5866;49.094;11.900;2024-03-02T10:31:39;52.10;;;40.67;;
11620;SDS011;5866;49.094;11.900;2024-03-02T10:34:09;58.03;;;52.22;;
11620;SDS011;5866;49.094;11.900;2024-03-02T10:36:40;55.70;;;49.70;;
11620;SDS011;5866;49.094;11.900;2024-03-02T10:39:09;55.35;;;49.47;;
11620;SDS011;5866;49.094;11.900;2024-03-02T10:41:37;51.22;;;45.50;;
11620;SDS011;5866;49.094;11.900;2024-03-02T10:44:06;45.90;;;40.92;;
11620;SDS011;5866;49.094;11.900;2024-03-02T10:46:35;41.00;;;36.60;;
11620;SDS011;5866;49.094;11.900;2024-03-02T10:49:05;40.90;;;33.17;;
11620;SDS011;5866;49.094;11.900;2024-03-02T10:51:34;37.97;;;30.13;;
11620;SDS011;5866;49.094;11.900;2024-03-02T10:54:04;36.65;;;28.58;;
11620;SDS011;5866;49.094;11.900;2024-03-02T10:56:33;36.15;;;29.65;;
11620;SDS011;5866;49.094;11.900;2024-03-02T10:59:06;39.03;;;30.10;;
11620;SDS011;5866;49.094;11.900;2024-03-02T11:01:46;47.03;;;42.42;;
11620;SDS011;5866;49.094;11.900;2024-03-02T11:04:17;53.88;;;48.90;;
11620;SDS011;5866;49.094;11.900;2024-03-02T11:06:47;43.10;;;38.70;;
11620;SDS011;5866;49.094;11.900;2024-03-02T11:09:16;56.20;;;51.08;;
11620;SDS011;5866;49.094;11.900;2024-03-02T11:11:49;59.38;;;54.22;;
11620;SDS011;5866;49.094;11.900;2024-03-02T11:14:23;57.33;;;52.15;;
11620;SDS011;5866;49.094;11.900;2024-03-02T11:16:52;62.33;;;56.88;;
11620;SDS011;5866;49.094;11.900;2024-03-02T11:19:22;45.15;;;40.70;;
11620;SDS011;5866;49.094;11.900;2024-03-02T11:21:51;38.10;;;33.13;;
11620;SDS011;5866;49.094;11.900;2024-03-02T11:24:28;37.80;;;32.80;;
11620;SDS011;5866;49.094;11.900;2024-03-02T11:27:04;37.15;;;33.10;;
11620;SDS011;5866;49.094;11.900;2024-03-02T11:29:43;36.10;;;32.15;;
11620;SDS011;5866;49.094;11.900;2024-03-02T11:32:18;39.67;;;35.45;;
11620;SDS011;5866;49.094;11.900;2024-03-02T11:34:50;38.53;;;34.42;;
11620;SDS011;5866;49.094;11.900;2024-03-02T11:37:18;38.85;;;34.90;;
11620;SDS011;5866;49.094;11.900;2024-03-02T11:39:49;33.97;;;30.38;;
11620;SDS011;5866;49.094;11.900;2024-03-02T11:42:17;31.83;;;28.35;;
11620;SDS011;5866;49.094;11.900;2024-03-02T11:44:46;28.83;;;24.10;;
11620;SDS011;5866;49.094;11.900;2024-03-02T11:47:14;29.52;;;23.13;;
11620;SDS011;5866;49.094;11.900;2024-03-02T11:49:44;29.65;;;23.10;;
11620;SDS011;5866;49.094;11.900;2024-03-02T11:52:14;28.15;;;22.27;;
11620;SDS011;5866;49.094;11.900;2024-03-02T11:54:44;25.98;;;21.15;;
11620;SDS011;5866;49.094;11.900;2024-03-02T11:57:18;27.33;;;21.45;;
11620;SDS011;5866;49.094;11.900;2024-03-02T11:59:49;26.70;;;20.85;;
11620;SDS011;5866;49.094;11.900;2024-03-02T12:02:17;28.00;;;21.70;;
11620;SDS011;5866;49.094;11.900;2024-03-02T12:04:46;25.83;;;20.92;;
11620;SDS011;5866;49.094;11.900;2024-03-02T12:07:19;26.80;;;22.33;;
11620;SDS011;5866;49.094;11.900;2024-03-02T12:09:48;25.77;;;20.92;;
11620;SDS011;5866;49.094;11.900;2024-03-02T12:12:16;28.48;;;22.67;;
11620;SDS011;5866;49.094;11.900;2024-03-02T12:14:50;28.33;;;21.17;;
11620;SDS011;5866;49.094;11.900;2024-03-02T12:17:18;28.67;;;21.67;;
11620;SDS011;5866;49.094;11.900;2024-03-02T12:19:46;29.13;;;21.67;;
11620;SDS011;5866;49.094;11.900;2024-03-02T12:22:14;26.67;;;22.25;;
11620;SDS011;5866;49.094;11.900;2024-03-02T12:24:44;26.88;;;20.63;;
11620;SDS011;5866;49.094;11.900;2024-03-02T12:27:12;29.00;;;22.00;;
11620;SDS011;5866;49.094;11.900;2024-03-02T12:29:42;30.40;;;24.10;;
11620;SDS011;5866;49.094;11.900;2024-03-02T12:32:10;29.60;;;25.05;;
11620;SDS011;5866;49.094;11.900;2024-03-02T12:34:38;28.65;;;23.55;;
11620;SDS011;5866;49.094;11.900;2024-03-02T12:37:05;29.77;;;23.35;;
11620;SDS011;5866;49.094;11.900;2024-03-02T12:39:33;29.95;;;26.17;;
11620;SDS011;5866;49.094;11.900;2024-03-02T12:42:03;29.13;;;23.48;;
11620;SDS011;5866;49.094;11.900;2024-03-02T12:44:30;28.63;;;24.35;;
11620;SDS011;5866;49.094;11.900;2024-03-02T12:46:57;28.40;;;23.42;;
11620;SDS011;5866;49.094;11.900;2024-03-02T12:49:27;27.40;;;23.73;;
11620;SDS011;5866;49.094;11.900;2024-03-02T12:51:57;27.55;;;22.55;;
11620;SDS011;5866;49.094;11.900;2024-03-02T12:54:24;27.63;;;22.23;;
11620;SDS011;5866;49.094;11.900;2024-03-02T12:56:53;28.15;;;23.58;;
11620;SDS011;5866;49.094;11.900;2024-03-02T12:59:23;27.00;;;23.23;;
11620;SDS011;5866;49.094;11.900;2024-03-02T13:01:53;24.85;;;21.77;;
11620;SDS011;5866;49.094;11.900;2024-03-02T13:04:23;27.25;;;21.48;;
11620;SDS011;5866;49.094;11.900;2024-03-02T13:06:52;25.50;;;20.50;;
11620;SDS011;5866;49.094;11.900;2024-03-02T13:09:20;23.95;;;19.60;;
11620;SDS011;5866;49.094;11.900;2024-03-02T13:11:48;23.75;;;18.60;;
11620;SDS011;5866;49.094;11.900;2024-03-02T13:14:16;24.23;;;18.35;;
11620;SDS011;5866;49.094;11.900;2024-03-02T13:16:45;22.40;;;18.05;;
11620;SDS011;5866;49.094;11.900;2024-03-02T13:19:13;23.63;;;18.20;;
11620;SDS011;5866;49.094;11.900;2024-03-02T13:21:41;22.75;;;17.00;;
11620;SDS011;5866;49.094;11.900;2024-03-02T13:24:09;20.98;;;16.67;;
11620;SDS011;5866;49.094;11.900;2024-03-02T13:26:37;22.38;;;16.83;;
11620;SDS011;5866;49.094;11.900;2024-03-02T13:29:06;22.75;;;16.92;;
11620;SDS011;5866;49.094;11.900;2024-03-02T13:31:34;22.38;;;16.48;;
11620;SDS011;5866;49.094;11.900;2024-03-02T13:34:03;21.88;;;16.35;;
11620;SDS011;5866;49.094;11.900;2024-03-02T13:36:31;22.58;;;16.98;;
11620;SDS011;5866;49.094;11.900;2024-03-02T13:38:58;21.77;;;16.17;;
11620;SDS011;5866;49.094;11.900;2024-03-02T13:41:26;21.88;;;16.23;;
11620;SDS011;5866;49.094;11.900;2024-03-02T13:43:54;21.85;;;16.00;;
11620;SDS011;5866;49.094;11.900;2024-03-02T13:46:22;23.42;;;16.70;;
11620;SDS011;5866;49.094;11.900;2024-03-02T13:48:49;22.88;;;17.17;;
11620;SDS011;5866;49.094;11.900;2024-03-02T13:51:19;20.77;;;16.48;;
11620;SDS011;5866;49.094;11.900;2024-03-02T13:53:47;22.80;;;17.17;;
11620;SDS011;5866;49.094;11.900;2024-03-02T13:56:14;19.95;;;16.58;;
11620;SDS011;5866;49.094;11.900;2024-03-02T13:58:42;23.10;;;17.90;;
11620;SDS011;5866;49.094;11.900;2024-03-02T14:01:09;22.00;;;17.25;;
11620;SDS011;5866;49.094;11.900;2024-03-02T14:03:37;22.92;;;16.70;;
11620;SDS011;5866;49.094;11.900;2024-03-02T14:06:05;23.08;;;16.67;;
11620;SDS011;5866;49.094;11.900;2024-03-02T14:08:34;22.45;;;17.92;;
11620;SDS011;5866;49.094;11.900;2024-03-02T14:11:02;21.50;;;17.20;;
11620;SDS011;5866;49.094;11.900;2024-03-02T14:13:30;23.67;;;17.13;;
11620;SDS011;5866;49.094;11.900;2024-03-02T14:15:57;22.85;;;16.40;;
11620;SDS011;5866;49.094;11.900;2024-03-02T14:18:25;21.15;;;16.15;;
11620;SDS011;5866;49.094;11.900;2024-03-02T14:20:53;20.55;;;15.98;;
11620;SDS011;5866;49.094;11.900;2024-03-02T14:23:22;22.00;;;17.02;;
11620;SDS011;5866;49.094;11.900;2024-03-02T14:25:53;23.60;;;18.92;;